createdAt,value
2019-03-30T00:00:34.846Z,18.53
2019-03-30T00:03:05.595Z,19.03
2019-03-30T00:05:36.313Z,18.43
2019-03-30T00:08:07.003Z,18.53
2019-03-30T00:10:37.715Z,18.03
2019-03-30T00:13:08.415Z,19.33
2019-03-30T00:15:39.113Z,18.70
2019-03-30T00:18:09.893Z,19.17
2019-03-30T00:20:40.650Z,19.23
2019-03-30T00:23:11.476Z,20.27
2019-03-30T00:25:42.270Z,19.57
2019-03-30T00:28:13.045Z,19.80
2019-03-30T00:30:43.720Z,22.13
2019-03-30T00:33:14.433Z,20.83
2019-03-30T00:35:45.150Z,20.60
2019-03-30T00:38:15.877Z,20.93
2019-03-30T00:40:46.544Z,21.10
2019-03-30T00:43:17.178Z,21.80
2019-03-30T00:45:47.866Z,21.63
2019-03-30T00:48:18.575Z,22.10
2019-03-30T00:50:49.213Z,20.60
2019-03-30T00:53:19.929Z,22.90
2019-03-30T00:55:50.667Z,22.50
2019-03-30T00:58:25.499Z,21.43
2019-03-30T01:00:54.902Z,21.87
2019-03-30T01:03:25.718Z,20.57
2019-03-30T01:05:58.274Z,22.10
2019-03-30T01:08:28.841Z,21.23
2019-03-30T01:10:59.534Z,21.77
2019-03-30T01:13:31.279Z,21.57
2019-03-30T01:16:02.025Z,21.63
2019-03-30T01:18:32.822Z,21.63
2019-03-30T01:21:03.633Z,21.37
2019-03-30T01:23:34.347Z,20.77
2019-03-30T01:26:05.197Z,20.93
2019-03-30T01:28:36.029Z,21.10
2019-03-30T01:31:06.734Z,20.53
2019-03-30T01:33:37.473Z,20.17
2019-03-30T01:36:08.261Z,21.10
2019-03-30T01:38:39.018Z,20.97
2019-03-30T01:41:09.633Z,20.63
2019-03-30T01:43:40.354Z,19.63
2019-03-30T01:46:11.063Z,20.07
2019-03-30T01:48:41.964Z,19.93
2019-03-30T01:51:12.651Z,20.17
2019-03-30T01:53:43.403Z,19.60
2019-03-30T01:56:14.069Z,20.30
2019-03-30T01:58:44.846Z,20.30
2019-03-30T02:01:15.589Z,20.17
2019-03-30T02:03:46.242Z,20.20
2019-03-30T02:06:16.855Z,20.47
2019-03-30T02:08:47.550Z,19.47
2019-03-30T02:11:18.174Z,19.27
2019-03-30T02:13:49.741Z,18.80
2019-03-30T02:16:20.374Z,18.13
2019-03-30T02:18:51.123Z,19.67
2019-03-30T02:21:22.886Z,18.67
2019-03-30T02:23:53.600Z,18.73
2019-03-30T02:26:24.281Z,19.57
2019-03-30T02:28:54.982Z,19.50
2019-03-30T02:31:25.663Z,19.57
2019-03-30T02:33:56.472Z,19.07
2019-03-30T02:36:27.190Z,19.03
2019-03-30T02:38:57.885Z,19.37
2019-03-30T02:41:28.567Z,19.67
2019-03-30T02:43:59.355Z,18.93
2019-03-30T02:46:30.119Z,19.50
2019-03-30T02:49:00.900Z,19.50
2019-03-30T02:51:32.594Z,19.23
2019-03-30T02:54:03.403Z,19.20
2019-03-30T02:56:34.006Z,20.30
2019-03-30T02:59:04.711Z,18.70
2019-03-30T03:01:35.327Z,20.80
2019-03-30T03:04:06.134Z,19.97
2019-03-30T03:06:38.007Z,20.20
2019-03-30T03:09:10.359Z,21.27
2019-03-30T03:11:41.094Z,20.73
2019-03-30T03:14:12.417Z,20.00
2019-03-30T03:16:43.210Z,21.80
2019-03-30T03:19:13.851Z,21.37
2019-03-30T03:21:44.546Z,20.70
2019-03-30T03:24:15.185Z,21.30
2019-03-30T03:26:46.863Z,21.93
2019-03-30T03:29:17.592Z,19.97
2019-03-30T03:31:48.382Z,21.07
2019-03-30T03:34:19.231Z,21.23
2019-03-30T03:36:49.862Z,20.77
2019-03-30T03:39:20.714Z,21.67
2019-03-30T03:41:51.418Z,22.00
2019-03-30T03:44:22.189Z,20.63
2019-03-30T03:46:52.914Z,21.37
2019-03-30T03:49:23.589Z,21.27
2019-03-30T03:51:54.262Z,21.30
2019-03-30T03:54:24.985Z,20.50
2019-03-30T03:56:57.894Z,21.30
2019-03-30T03:59:29.732Z,20.67
2019-03-30T04:02:02.826Z,20.43
2019-03-30T04:04:36.167Z,21.87
2019-03-30T04:07:07.687Z,20.67
2019-03-30T04:09:41.064Z,21.67
2019-03-30T04:12:13.311Z,20.27
2019-03-30T04:14:49.491Z,21.07
2019-03-30T04:17:20.180Z,21.50
2019-03-30T04:19:50.910Z,20.83
2019-03-30T04:22:22.629Z,21.30
2019-03-30T04:24:53.451Z,20.77
2019-03-30T04:27:24.182Z,21.07
2019-03-30T04:29:54.913Z,20.63
2019-03-30T04:32:25.578Z,21.23
2019-03-30T04:34:56.352Z,19.57
2019-03-30T04:37:27.139Z,19.83
2019-03-30T04:39:57.883Z,20.13
2019-03-30T04:42:28.625Z,20.17
2019-03-30T04:44:59.340Z,20.80
2019-03-30T04:47:30.078Z,19.77
2019-03-30T04:50:00.757Z,20.17
2019-03-30T04:52:31.350Z,20.17
2019-03-30T04:55:01.988Z,19.33
2019-03-30T04:57:32.609Z,19.90
2019-03-30T05:00:03.266Z,19.30
2019-03-30T05:02:33.907Z,19.13
2019-03-30T05:05:04.675Z,19.20
2019-03-30T05:07:35.242Z,18.33
2019-03-30T05:10:06.937Z,19.57
2019-03-30T05:12:37.623Z,19.10
2019-03-30T05:15:09.465Z,19.23
2019-03-30T05:17:47.411Z,17.77
2019-03-30T05:20:12.646Z,18.57
2019-03-30T05:22:43.315Z,17.93
2019-03-30T05:25:14.091Z,17.83
2019-03-30T05:27:44.902Z,17.77
2019-03-30T05:30:15.631Z,19.13
2019-03-30T05:32:46.351Z,19.27
2019-03-30T05:35:17.085Z,16.83
2019-03-30T05:37:47.705Z,16.90
2019-03-30T05:40:23.442Z,17.17
2019-03-30T05:42:58.376Z,16.67
2019-03-30T05:45:31.567Z,16.27
2019-03-30T05:48:02.531Z,17.20
2019-03-30T05:50:33.218Z,17.30
2019-03-30T05:53:03.906Z,17.07
2019-03-30T05:55:35.731Z,16.90
2019-03-30T05:58:06.402Z,15.97
2019-03-30T06:00:37.129Z,16.70
2019-03-30T06:03:07.761Z,17.70
2019-03-30T06:05:38.573Z,17.83
2019-03-30T06:08:09.363Z,19.70
2019-03-30T06:10:40.169Z,19.07
2019-03-30T06:13:10.896Z,17.47
2019-03-30T06:15:41.690Z,18.00
2019-03-30T06:18:12.504Z,17.37
2019-03-30T06:20:43.287Z,16.83
2019-03-30T06:23:13.971Z,18.57
2019-03-30T06:25:44.799Z,16.60
2019-03-30T06:28:16.565Z,16.80
2019-03-30T06:30:48.442Z,16.40
2019-03-30T06:33:21.763Z,16.67
2019-03-30T06:35:55.164Z,16.27
2019-03-30T06:38:25.970Z,16.03
2019-03-30T06:40:56.744Z,15.70
2019-03-30T06:43:27.578Z,15.73
2019-03-30T06:45:58.390Z,15.83
2019-03-30T06:48:29.226Z,15.23
2019-03-30T06:51:00.024Z,15.27
2019-03-30T06:53:30.689Z,15.07
2019-03-30T06:56:01.462Z,14.43
2019-03-30T06:58:32.157Z,14.70
2019-03-30T07:01:03.036Z,15.10
2019-03-30T07:03:33.741Z,14.23
2019-03-30T07:06:06.698Z,14.83
2019-03-30T07:08:38.248Z,14.90
2019-03-30T07:11:21.131Z,14.43
2019-03-30T07:13:46.173Z,14.70
2019-03-30T07:16:16.885Z,14.83
2019-03-30T07:18:51.330Z,14.60
2019-03-30T07:21:22.076Z,16.27
2019-03-30T07:23:52.781Z,15.83
2019-03-30T07:26:23.579Z,17.50
2019-03-30T07:28:54.290Z,15.97
2019-03-30T07:31:24.989Z,15.43
2019-03-30T07:33:55.673Z,14.47
2019-03-30T07:36:26.390Z,14.97
2019-03-30T07:38:57.058Z,24.37
2019-03-30T07:41:27.771Z,17.00
2019-03-30T07:43:58.473Z,16.53
2019-03-30T07:46:29.278Z,15.97
2019-03-30T07:49:00.126Z,17.60
2019-03-30T07:51:33.356Z,15.40
2019-03-30T07:54:03.201Z,16.00
2019-03-30T07:56:33.986Z,15.77
2019-03-30T07:59:04.720Z,18.60
2019-03-30T08:01:36.374Z,15.97
2019-03-30T08:04:07.084Z,16.63
2019-03-30T08:06:37.858Z,16.53
2019-03-30T08:09:08.702Z,16.67
2019-03-30T08:11:39.369Z,18.27
2019-03-30T08:14:10.026Z,16.43
2019-03-30T08:16:40.799Z,16.83
2019-03-30T08:19:11.430Z,16.67
2019-03-30T08:21:42.130Z,17.87
2019-03-30T08:24:12.801Z,16.23
2019-03-30T08:26:43.506Z,16.17
2019-03-30T08:29:14.289Z,16.23
2019-03-30T08:31:44.989Z,15.63
2019-03-30T08:34:15.641Z,16.17
2019-03-30T08:36:46.333Z,16.70
2019-03-30T08:39:17.074Z,16.67
2019-03-30T08:41:47.802Z,16.00
2019-03-30T08:44:18.522Z,17.40
2019-03-30T08:46:49.256Z,17.10
2019-03-30T08:49:19.873Z,18.13
2019-03-30T08:51:50.647Z,20.87
2019-03-30T08:54:21.382Z,18.77
2019-03-30T08:56:53.110Z,18.07
2019-03-30T08:59:23.847Z,18.10
2019-03-30T09:01:54.528Z,19.27
2019-03-30T09:04:25.312Z,19.90
2019-03-30T09:06:55.982Z,18.97
2019-03-30T09:09:26.693Z,21.00
2019-03-30T09:11:57.457Z,21.17
2019-03-30T09:14:28.161Z,22.27
2019-03-30T09:16:58.850Z,23.27
2019-03-30T09:19:29.537Z,26.27
2019-03-30T09:22:00.262Z,22.57
2019-03-30T09:24:30.952Z,21.83
2019-03-30T09:27:01.654Z,22.03
2019-03-30T09:29:32.338Z,22.27
2019-03-30T09:32:13.676Z,21.77
2019-03-30T09:34:35.517Z,22.20
2019-03-30T09:37:07.351Z,22.43
2019-03-30T09:39:38.113Z,24.13
2019-03-30T09:42:08.862Z,24.00
2019-03-30T09:44:39.497Z,23.13
2019-03-30T09:47:10.251Z,22.57
2019-03-30T09:49:40.896Z,22.70
2019-03-30T09:52:11.753Z,24.30
2019-03-30T09:54:42.549Z,22.27
2019-03-30T09:57:13.466Z,23.17
2019-03-30T09:59:45.286Z,22.67
2019-03-30T10:02:16.038Z,21.77
2019-03-30T10:04:46.705Z,22.00
2019-03-30T10:07:17.613Z,22.10
2019-03-30T10:09:48.425Z,21.33
2019-03-30T10:12:19.248Z,21.30
2019-03-30T10:14:49.974Z,19.40
2019-03-30T10:17:20.754Z,22.03
2019-03-30T10:20:03.546Z,19.03
2019-03-30T10:22:24.099Z,15.93
2019-03-30T10:24:58.169Z,16.10
2019-03-30T10:27:27.170Z,15.20
2019-03-30T10:29:57.734Z,15.00
2019-03-30T10:32:28.633Z,14.67
2019-03-30T10:34:59.446Z,14.00
2019-03-30T10:37:30.128Z,15.47
2019-03-30T10:40:00.778Z,14.47
2019-03-30T10:42:31.464Z,14.17
2019-03-30T10:45:02.234Z,13.37
2019-03-30T10:47:33.135Z,14.23
2019-03-30T10:50:04.069Z,14.37
2019-03-30T10:52:35.661Z,13.73
2019-03-30T10:55:07.162Z,13.13
2019-03-30T10:57:37.823Z,14.87
2019-03-30T11:00:10.057Z,14.70
2019-03-30T11:02:40.993Z,14.00
2019-03-30T11:05:11.758Z,14.33
2019-03-30T11:07:42.622Z,14.67
2019-03-30T11:10:13.438Z,14.93
2019-03-30T11:12:44.174Z,14.50
2019-03-30T11:15:15.008Z,13.80
2019-03-30T11:17:45.858Z,14.07
2019-03-30T11:20:17.086Z,13.40
2019-03-30T11:22:47.974Z,14.17
2019-03-30T11:25:18.727Z,15.07
2019-03-30T11:27:49.587Z,15.40
2019-03-30T11:30:20.285Z,15.37
2019-03-30T11:32:50.989Z,13.80
2019-03-30T11:35:21.690Z,14.57
2019-03-30T11:37:52.533Z,14.83
2019-03-30T11:40:23.271Z,14.17
2019-03-30T11:42:53.984Z,13.53
2019-03-30T11:45:24.733Z,15.77
2019-03-30T11:47:55.457Z,14.90
2019-03-30T11:50:26.142Z,14.50
2019-03-30T11:52:56.857Z,15.57
2019-03-30T11:55:27.715Z,15.80
2019-03-30T11:57:58.614Z,15.60
2019-03-30T12:00:29.405Z,16.53
2019-03-30T12:03:00.225Z,16.77
2019-03-30T12:05:30.851Z,16.40
2019-03-30T12:08:01.558Z,17.70
2019-03-30T12:10:32.230Z,16.43
2019-03-30T12:13:02.901Z,16.47
2019-03-30T12:15:33.502Z,16.47
2019-03-30T12:18:04.249Z,16.97
2019-03-30T12:20:34.918Z,19.30
2019-03-30T12:23:05.579Z,16.60
2019-03-30T12:25:36.416Z,15.70
2019-03-30T12:28:07.145Z,15.23
2019-03-30T12:30:37.897Z,15.53
2019-03-30T12:33:08.613Z,15.80
2019-03-30T12:35:39.402Z,16.47
2019-03-30T12:38:10.050Z,15.70
2019-03-30T12:40:40.867Z,16.27
2019-03-30T12:43:11.778Z,16.27
2019-03-30T12:45:42.849Z,16.30
2019-03-30T12:48:13.585Z,15.63
2019-03-30T12:50:44.329Z,15.43
2019-03-30T12:53:15.090Z,16.30
2019-03-30T12:55:49.603Z,16.60
2019-03-30T12:58:18.351Z,16.37
2019-03-30T13:00:49.193Z,15.73
2019-03-30T13:03:19.972Z,16.20
2019-03-30T13:05:50.662Z,15.37
2019-03-30T13:08:21.517Z,15.23
2019-03-30T13:10:52.418Z,15.73
2019-03-30T13:13:23.197Z,16.13
2019-03-30T13:15:53.878Z,15.90
2019-03-30T13:18:24.635Z,16.80
2019-03-30T13:20:55.374Z,15.77
2019-03-30T13:23:26.025Z,18.30
2019-03-30T13:26:03.411Z,17.13
2019-03-30T13:28:29.125Z,16.23
2019-03-30T13:30:59.840Z,16.97
2019-03-30T13:33:30.597Z,16.63
2019-03-30T13:36:01.310Z,17.20
2019-03-30T13:38:32.035Z,16.30
2019-03-30T13:41:02.712Z,17.30
2019-03-30T13:43:33.618Z,19.07
2019-03-30T13:46:04.261Z,17.87
2019-03-30T13:48:34.957Z,16.87
2019-03-30T13:51:05.782Z,16.97
2019-03-30T13:53:36.518Z,16.30
2019-03-30T13:56:17.017Z,17.63
2019-03-30T13:58:39.699Z,18.90
2019-03-30T14:01:10.418Z,19.37
2019-03-30T14:03:41.194Z,18.80
2019-03-30T14:06:11.958Z,18.43
2019-03-30T14:08:44.158Z,18.57
2019-03-30T14:11:15.866Z,18.83
2019-03-30T14:13:46.665Z,18.57
2019-03-30T14:16:17.433Z,19.37
2019-03-30T14:18:48.205Z,20.03
2019-03-30T14:21:18.828Z,20.87
2019-03-30T14:23:49.446Z,20.63
2019-03-30T14:26:30.823Z,21.20
2019-03-30T14:28:52.626Z,20.67
2019-03-30T14:31:23.371Z,20.37
2019-03-30T14:33:53.966Z,20.80
2019-03-30T14:36:24.632Z,22.20
2019-03-30T14:38:55.532Z,21.70
2019-03-30T14:41:26.175Z,22.00
2019-03-30T14:43:56.841Z,22.83
2019-03-30T14:46:27.662Z,22.33
2019-03-30T14:48:58.446Z,22.80
2019-03-30T14:51:29.242Z,22.63
2019-03-30T14:53:59.987Z,23.87
2019-03-30T14:56:44.583Z,23.93
2019-03-30T14:59:10.025Z,24.37
2019-03-30T15:01:35.930Z,24.37
2019-03-30T15:04:06.626Z,23.97
2019-03-30T15:06:37.428Z,25.03
2019-03-30T15:09:08.798Z,25.07
2019-03-30T15:11:39.444Z,24.87
2019-03-30T15:14:10.310Z,24.67
2019-03-30T15:16:41.043Z,25.30
2019-03-30T15:19:11.718Z,30.70
2019-03-30T15:21:42.478Z,25.97
2019-03-30T15:24:13.249Z,25.80
2019-03-30T15:26:44.014Z,29.40
2019-03-30T15:29:14.601Z,28.47
2019-03-30T15:31:45.746Z,30.10
2019-03-30T15:34:16.662Z,30.20
2019-03-30T15:36:47.434Z,30.83
2019-03-30T15:39:18.326Z,33.00
2019-03-30T15:41:49.136Z,32.27
2019-03-30T15:44:19.989Z,34.50
2019-03-30T15:46:50.734Z,34.23
2019-03-30T15:49:21.405Z,35.67
2019-03-30T15:51:52.096Z,35.30
2019-03-30T15:54:22.829Z,35.90
2019-03-30T15:56:53.537Z,36.37
2019-03-30T15:59:24.243Z,36.67
2019-03-30T16:01:54.938Z,37.03
2019-03-30T16:04:26.017Z,37.40
2019-03-30T16:06:56.845Z,37.40
2019-03-30T16:09:28.544Z,37.87
2019-03-30T16:11:59.337Z,38.80
2019-03-30T16:14:30.167Z,44.43
2019-03-30T16:17:00.841Z,53.13
2019-03-30T16:19:32.649Z,47.70
2019-03-30T16:22:03.336Z,46.03
2019-03-30T16:24:34.138Z,47.17
2019-03-30T16:27:05.037Z,46.73
2019-03-30T16:29:35.800Z,45.67
2019-03-30T16:32:06.478Z,45.37
2019-03-30T16:34:37.125Z,45.97
2019-03-30T16:37:07.810Z,46.30
2019-03-30T16:39:38.657Z,50.43
2019-03-30T16:42:09.314Z,47.53
2019-03-30T16:44:40.022Z,47.80
2019-03-30T16:47:10.689Z,47.07
2019-03-30T16:49:41.441Z,47.73
2019-03-30T16:52:12.230Z,49.93
2019-03-30T16:54:42.913Z,49.57
2019-03-30T16:57:13.770Z,50.23
2019-03-30T16:59:44.518Z,49.13
2019-03-30T17:02:15.346Z,49.70
2019-03-30T17:04:46.022Z,53.60
2019-03-30T17:07:16.731Z,49.13
2019-03-30T17:09:48.354Z,49.90
2019-03-30T17:12:19.127Z,62.93
2019-03-30T17:14:49.974Z,50.87
2019-03-30T17:17:20.727Z,49.47
2019-03-30T17:19:52.594Z,46.60
2019-03-30T17:22:23.385Z,46.83
2019-03-30T17:24:54.037Z,47.47
2019-03-30T17:27:24.733Z,46.37
2019-03-30T17:29:55.470Z,46.00
2019-03-30T17:32:26.170Z,47.73
2019-03-30T17:34:57.031Z,48.50
2019-03-30T17:37:30.024Z,51.50
2019-03-30T17:40:00.977Z,53.20
2019-03-30T17:42:32.083Z,53.03
2019-03-30T17:45:03.003Z,53.00
2019-03-30T17:47:33.790Z,57.17
2019-03-30T17:50:06.470Z,58.93
2019-03-30T17:52:43.605Z,61.37
2019-03-30T17:55:14.582Z,64.33
2019-03-30T17:57:45.430Z,71.60
2019-03-30T18:00:18.346Z,71.53
2019-03-30T18:02:49.130Z,68.00
2019-03-30T18:05:21.041Z,69.87
2019-03-30T18:07:51.679Z,69.27
2019-03-30T18:10:23.315Z,73.43
2019-03-30T18:12:54.116Z,71.33
2019-03-30T18:15:25.647Z,72.33
2019-03-30T18:17:57.019Z,73.80
2019-03-30T18:20:28.149Z,73.17
2019-03-30T18:22:58.886Z,80.70
2019-03-30T18:25:30.262Z,77.37
2019-03-30T18:28:01.613Z,79.40
2019-03-30T18:30:37.852Z,78.63
2019-03-30T18:33:09.114Z,79.70
2019-03-30T18:35:41.346Z,81.10
2019-03-30T18:38:13.047Z,80.90
2019-03-30T18:40:44.178Z,80.80
2019-03-30T18:43:14.953Z,82.87
2019-03-30T18:45:45.782Z,90.07
2019-03-30T18:48:18.586Z,84.17
2019-03-30T18:50:49.609Z,95.83
2019-03-30T18:53:20.434Z,110.07
2019-03-30T18:55:51.414Z,142.23
2019-03-30T18:58:22.198Z,150.00
2019-03-30T19:00:52.933Z,143.37
2019-03-30T19:03:23.747Z,132.27
2019-03-30T19:05:54.690Z,115.77
2019-03-30T19:08:25.668Z,99.27
2019-03-30T19:10:56.332Z,99.07
2019-03-30T19:13:27.080Z,102.13
2019-03-30T19:15:57.914Z,104.00
2019-03-30T19:18:28.680Z,109.13
2019-03-30T19:21:06.963Z,101.23
2019-03-30T19:23:44.026Z,100.80
2019-03-30T19:26:14.821Z,101.13
2019-03-30T19:28:56.327Z,101.50
2019-03-30T19:31:18.014Z,105.47
2019-03-30T19:33:48.718Z,103.37
2019-03-30T19:36:19.535Z,104.33
2019-03-30T19:38:50.339Z,102.97
2019-03-30T19:41:22.261Z,96.97
2019-03-30T19:43:52.960Z,98.13
2019-03-30T19:46:26.512Z,94.67
2019-03-30T19:48:56.030Z,95.60
2019-03-30T19:51:26.775Z,95.83
2019-03-30T19:53:59.922Z,97.33
2019-03-30T19:56:29.878Z,95.00
2019-03-30T19:59:10.607Z,96.27
2019-03-30T20:01:33.050Z,95.33
2019-03-30T20:04:07.455Z,92.80
2019-03-30T20:06:36.447Z,93.33
2019-03-30T20:09:09.137Z,92.50
2019-03-30T20:11:41.379Z,91.47
2019-03-30T20:14:12.168Z,89.80
2019-03-30T20:16:43.146Z,87.30
2019-03-30T20:19:13.865Z,90.97
2019-03-30T20:21:44.618Z,87.90
2019-03-30T20:24:16.459Z,90.07
2019-03-30T20:26:47.198Z,88.73
2019-03-30T20:29:25.110Z,90.17
2019-03-30T20:31:51.492Z,94.37
2019-03-30T20:34:22.205Z,101.37
2019-03-30T20:36:52.817Z,101.23
2019-03-30T20:39:23.754Z,103.90
2019-03-30T20:41:54.487Z,102.07
2019-03-30T20:44:26.426Z,102.87
2019-03-30T20:46:58.222Z,108.80
2019-03-30T20:49:29.014Z,117.90
2019-03-30T20:51:59.720Z,112.50
2019-03-30T20:54:30.528Z,116.73
2019-03-30T20:57:02.507Z,112.07
2019-03-30T20:59:39.828Z,123.03
2019-03-30T21:02:05.614Z,114.30
2019-03-30T21:04:36.430Z,116.77
2019-03-30T21:07:07.196Z,118.30
2019-03-30T21:09:38.137Z,111.10
2019-03-30T21:12:09.012Z,112.63
2019-03-30T21:14:39.971Z,107.77
2019-03-30T21:17:10.727Z,105.60
2019-03-30T21:19:41.683Z,103.67
2019-03-30T21:22:12.686Z,100.83
2019-03-30T21:24:43.829Z,96.43
2019-03-30T21:27:14.741Z,90.47
2019-03-30T21:29:54.509Z,89.33
2019-03-30T21:32:19.295Z,88.33
2019-03-30T21:34:50.402Z,87.10
2019-03-30T21:37:21.324Z,87.70
2019-03-30T21:39:52.206Z,88.93
2019-03-30T21:42:23.026Z,83.97
2019-03-30T21:44:53.646Z,87.03
2019-03-30T21:47:24.446Z,89.00
2019-03-30T21:49:55.126Z,90.00
2019-03-30T21:52:25.864Z,90.43
2019-03-30T21:54:58.084Z,93.40
2019-03-30T21:57:28.866Z,106.73
2019-03-30T22:00:09.956Z,146.50
2019-03-30T22:02:32.354Z,164.17
2019-03-30T22:05:03.283Z,142.77
2019-03-30T22:07:34.656Z,134.97
2019-03-30T22:10:06.959Z,130.93
2019-03-30T22:12:41.798Z,119.90
2019-03-30T22:15:16.665Z,108.80
2019-03-30T22:17:47.342Z,105.23
2019-03-30T22:20:21.199Z,97.27
2019-03-30T22:22:50.546Z,100.33
2019-03-30T22:25:22.658Z,101.43
2019-03-30T22:27:53.329Z,103.77
2019-03-30T22:30:26.745Z,101.33
2019-03-30T22:32:57.522Z,100.13
2019-03-30T22:35:29.339Z,101.97
2019-03-30T22:38:01.198Z,99.10
2019-03-30T22:40:34.875Z,102.63
2019-03-30T22:43:08.563Z,98.83
2019-03-30T22:45:39.654Z,92.60
2019-03-30T22:48:10.323Z,98.47
2019-03-30T22:50:41.055Z,96.93
2019-03-30T22:53:11.911Z,97.33
2019-03-30T22:55:42.747Z,94.40
2019-03-30T22:58:13.472Z,95.70
2019-03-30T23:01:21.347Z,94.93
2019-03-30T23:03:52.198Z,90.97
2019-03-30T23:06:22.985Z,92.67
2019-03-30T23:08:53.825Z,90.83
2019-03-30T23:11:24.583Z,89.33
2019-03-30T23:13:56.291Z,86.93
2019-03-30T23:16:27.061Z,89.47
2019-03-30T23:18:57.825Z,89.33
2019-03-30T23:21:28.642Z,93.23
2019-03-30T23:23:59.499Z,91.17
2019-03-30T23:26:30.353Z,93.00
2019-03-30T23:29:01.007Z,89.90
2019-03-30T23:31:31.658Z,93.67
2019-03-30T23:34:02.400Z,89.47
2019-03-30T23:36:33.313Z,93.03
2019-03-30T23:39:06.190Z,91.73
2019-03-30T23:41:36.862Z,89.83
2019-03-30T23:44:07.502Z,91.03
2019-03-30T23:46:38.293Z,87.70
2019-03-30T23:49:08.958Z,85.70
2019-03-30T23:51:39.669Z,86.23
2019-03-30T23:54:14.205Z,85.40
2019-03-30T23:56:44.889Z,85.93
2019-03-30T23:59:15.514Z,82.63
